首页
METAR-TAF:

METAR-TAF

机场 :

格倫興, 瑞士

纬度: 47-10-53N, 经度: 007-24-59E, 海拔: 430米

当前天气观测

该预报发布于9分钟前的16:50 UTC
风速3节,风向南转西南
温度 -1°C
湿度 100%
气压 1023 hPa
能見度: 0200
冻雾

METAR: LSZG 241650Z 21003KT 0200 FZFG VV001 M01/M01 Q1023 NOSIG

时间: 17:59 (16:59 UTC)

预报

该预报发布于2小时和34分钟前的14:25 UTC
预报有效从24日的 15点(UTC)到 24日的 24点(UTC)
风速3节,风向多变
能見度: 0600
层高于300英尺
冻雾
短暂存在
从 24日的 15点(UTC)到 24日的 24点(UTC)
能見度: 0200
层高于100英尺

TAF: LSZG 241425Z 2415/2424 VRB03KT 0600 FZFG VV003 TEMPO 2415/2424 0200 VV001

超过4000个机场的气象观测和天气预报(METAR&TAF报告)。

可查询的气象台以黄色和红色小点在地图上表示。

将鼠标移到小点上方,可查看气象台名称。

然后点击查看天气观测和预报。

如需切换地图:点击带黑十字的绿色按钮放大地图;点击带横线的绿色按钮缩小地图;或者点击绿色箭头查看邻近地区的地图。


METAR-TAF: